sensor_id;sensor_type;location;lat;lon;timestamp;pressure;altitude;pressure_sealevel;temperature;humidity
22031;BME280;11179;52.106;21.024;2024-02-26T00:00:07;99612.16;;;4.04;68.34
22031;BME280;11179;52.106;21.024;2024-02-26T00:02:37;99618.56;;;3.98;68.44
22031;BME280;11179;52.106;21.024;2024-02-26T00:05:06;99610.16;;;4.00;68.94
22031;BME280;11179;52.106;21.024;2024-02-26T00:07:32;99614.44;;;4.07;69.20
22031;BME280;11179;52.106;21.024;2024-02-26T00:09:57;99619.28;;;4.17;69.38
22031;BME280;11179;52.106;21.024;2024-02-26T00:12:23;99616.91;;;4.21;69.33
22031;BME280;11179;52.106;21.024;2024-02-26T00:14:48;99615.63;;;4.23;69.31
22031;BME280;11179;52.106;21.024;2024-02-26T00:17:15;99615.63;;;4.23;69.51
22031;BME280;11179;52.106;21.024;2024-02-26T00:19:40;99619.03;;;4.19;69.63
22031;BME280;11179;52.106;21.024;2024-02-26T00:22:06;99611.34;;;4.16;69.89
22031;BME280;11179;52.106;21.024;2024-02-26T00:24:31;99606.75;;;4.16;69.96
22031;BME280;11179;52.106;21.024;2024-02-26T00:26:57;99612.09;;;4.23;70.37
22031;BME280;11179;52.106;21.024;2024-02-26T00:29:22;99606.19;;;4.26;70.17
22031;BME280;11179;52.106;21.024;2024-02-26T00:31:48;99608.63;;;4.27;70.19
22031;BME280;11179;52.106;21.024;2024-02-26T00:34:13;99601.81;;;4.25;70.28
22031;BME280;11179;52.106;21.024;2024-02-26T00:36:39;99607.25;;;4.25;70.35
22031;BME280;11179;52.106;21.024;2024-02-26T00:39:04;99599.19;;;4.18;70.65
22031;BME280;11179;52.106;21.024;2024-02-26T00:41:29;99596.94;;;4.15;70.73
22031;BME280;11179;52.106;21.024;2024-02-26T00:43:55;99596.00;;;4.10;70.88
22031;BME280;11179;52.106;21.024;2024-02-26T00:46:20;99600.47;;;4.04;70.86
22031;BME280;11179;52.106;21.024;2024-02-26T00:48:45;99582.16;;;3.99;71.21
22031;BME280;11179;52.106;21.024;2024-02-26T00:51:11;99587.03;;;3.97;71.31
22031;BME280;11179;52.106;21.024;2024-02-26T00:53:36;99589.25;;;4.00;71.28
22031;BME280;11179;52.106;21.024;2024-02-26T00:56:02;99595.72;;;3.99;71.47
22031;BME280;11179;52.106;21.024;2024-02-26T00:58:27;99594.81;;;3.94;71.50
22031;BME280;11179;52.106;21.024;2024-02-26T01:00:53;99591.13;;;3.88;71.22
22031;BME280;11179;52.106;21.024;2024-02-26T01:03:18;99590.16;;;3.83;71.51
22031;BME280;11179;52.106;21.024;2024-02-26T01:05:44;99600.19;;;3.82;71.38
22031;BME280;11179;52.106;21.024;2024-02-26T01:08:10;99592.63;;;3.84;71.79
22031;BME280;11179;52.106;21.024;2024-02-26T01:10:35;99589.09;;;3.84;71.46
22031;BME280;11179;52.106;21.024;2024-02-26T01:13:01;99592.50;;;3.79;71.51
22031;BME280;11179;52.106;21.024;2024-02-26T01:15:26;99593.41;;;3.73;71.59
22031;BME280;11179;52.106;21.024;2024-02-26T01:17:52;99593.53;;;3.66;71.61
22031;BME280;11179;52.106;21.024;2024-02-26T01:20:18;99591.50;;;3.62;71.60
22031;BME280;11179;52.106;21.024;2024-02-26T01:22:44;99587.84;;;3.56;71.47
22031;BME280;11179;52.106;21.024;2024-02-26T01:25:10;99594.56;;;3.54;71.70
22031;BME280;11179;52.106;21.024;2024-02-26T01:27:38;99596.06;;;3.50;71.66
22031;BME280;11179;52.106;21.024;2024-02-26T01:30:05;99593.69;;;3.42;71.51
22031;BME280;11179;52.106;21.024;2024-02-26T01:32:31;99596.63;;;3.40;71.56
22031;BME280;11179;52.106;21.024;2024-02-26T01:34:56;99589.41;;;3.34;71.55
22031;BME280;11179;52.106;21.024;2024-02-26T01:37:22;99598.84;;;3.31;71.30
22031;BME280;11179;52.106;21.024;2024-02-26T01:39:47;99596.38;;;3.30;71.40
22031;BME280;11179;52.106;21.024;2024-02-26T01:42:13;99597.03;;;3.25;71.24
22031;BME280;11179;52.106;21.024;2024-02-26T01:44:38;99589.34;;;3.22;71.47
22031;BME280;11179;52.106;21.024;2024-02-26T01:47:05;99590.88;;;3.18;71.09
22031;BME280;11179;52.106;21.024;2024-02-26T01:49:33;99584.25;;;3.14;71.14
22031;BME280;11179;52.106;21.024;2024-02-26T01:52:00;99579.28;;;3.11;71.33
22031;BME280;11179;52.106;21.024;2024-02-26T01:54:27;99582.44;;;3.08;71.29
22031;BME280;11179;52.106;21.024;2024-02-26T01:56:53;99588.91;;;3.07;71.43
22031;BME280;11179;52.106;21.024;2024-02-26T01:59:19;99589.97;;;3.06;71.34
22031;BME280;11179;52.106;21.024;2024-02-26T02:01:48;99600.25;;;3.04;71.48
22031;BME280;11179;52.106;21.024;2024-02-26T02:04:17;99591.34;;;2.97;71.64
22031;BME280;11179;52.106;21.024;2024-02-26T02:06:45;99588.75;;;2.90;71.46
22031;BME280;11179;52.106;21.024;2024-02-26T02:09:11;99588.34;;;2.87;71.66
22031;BME280;11179;52.106;21.024;2024-02-26T02:11:36;99591.50;;;2.84;71.61
22031;BME280;11179;52.106;21.024;2024-02-26T02:14:02;99589.50;;;2.79;71.59
22031;BME280;11179;52.106;21.024;2024-02-26T02:16:27;99596.19;;;2.77;71.44
22031;BME280;11179;52.106;21.024;2024-02-26T02:18:52;99579.38;;;2.68;71.65
22031;BME280;11179;52.106;21.024;2024-02-26T02:21:18;99598.53;;;2.73;71.62
22031;BME280;11179;52.106;21.024;2024-02-26T02:23:43;99598.91;;;2.77;71.42
22031;BME280;11179;52.106;21.024;2024-02-26T02:26:12;99589.50;;;2.79;71.74
22031;BME280;11179;52.106;21.024;2024-02-26T02:28:39;99595.88;;;2.85;71.65
22031;BME280;11179;52.106;21.024;2024-02-26T02:31:05;99598.81;;;2.83;71.69
22031;BME280;11179;52.106;21.024;2024-02-26T02:33:30;99596.19;;;2.77;71.78
22031;BME280;11179;52.106;21.024;2024-02-26T02:35:56;99603.94;;;2.73;71.93
22031;BME280;11179;52.106;21.024;2024-02-26T02:38:23;99602.50;;;2.71;71.90
22031;BME280;11179;52.106;21.024;2024-02-26T02:40:49;99603.34;;;2.71;72.25
22031;BME280;11179;52.106;21.024;2024-02-26T02:43:14;99606.06;;;2.71;72.10
22031;BME280;11179;52.106;21.024;2024-02-26T02:45:39;99607.94;;;2.71;72.23
22031;BME280;11179;52.106;21.024;2024-02-26T02:48:05;99606.88;;;2.72;72.72
22031;BME280;11179;52.106;21.024;2024-02-26T02:50:30;99606.88;;;2.72;72.36
22031;BME280;11179;52.106;21.024;2024-02-26T02:52:55;99594.53;;;2.57;72.50
22031;BME280;11179;52.106;21.024;2024-02-26T02:55:21;99616.50;;;2.68;72.82
22031;BME280;11179;52.106;21.024;2024-02-26T02:57:46;99622.97;;;2.66;72.95
22031;BME280;11179;52.106;21.024;2024-02-26T03:00:12;99620.13;;;2.61;72.80
22031;BME280;11179;52.106;21.024;2024-02-26T03:02:38;99620.34;;;2.60;72.79
22031;BME280;11179;52.106;21.024;2024-02-26T03:05:06;99619.75;;;2.58;72.97
22031;BME280;11179;52.106;21.024;2024-02-26T03:07:32;99619.34;;;2.54;73.09
22031;BME280;11179;52.106;21.024;2024-02-26T03:09:57;99625.25;;;2.51;73.03
22031;BME280;11179;52.106;21.024;2024-02-26T03:12:23;99632.16;;;2.47;72.91
22031;BME280;11179;52.106;21.024;2024-02-26T03:14:48;99634.34;;;2.39;73.00
22031;BME280;11179;52.106;21.024;2024-02-26T03:17:13;99628.66;;;2.40;73.20
22031;BME280;11179;52.106;21.024;2024-02-26T03:19:39;99633.44;;;2.45;73.00
22031;BME280;11179;52.106;21.024;2024-02-26T03:22:04;99632.59;;;2.44;73.31
22031;BME280;11179;52.106;21.024;2024-02-26T03:24:29;99637.19;;;2.44;73.17
22031;BME280;11179;52.106;21.024;2024-02-26T03:26:55;99635.69;;;2.48;73.32
22031;BME280;11179;52.106;21.024;2024-02-26T03:29:21;99635.47;;;2.49;73.56
22031;BME280;11179;52.106;21.024;2024-02-26T03:31:46;99644.22;;;2.51;73.59
22031;BME280;11179;52.106;21.024;2024-02-26T03:34:11;99632.56;;;2.51;73.75
22031;BME280;11179;52.106;21.024;2024-02-26T03:36:38;99632.56;;;2.51;73.92
22031;BME280;11179;52.106;21.024;2024-02-26T03:39:04;99633.38;;;2.51;73.97
22031;BME280;11179;52.106;21.024;2024-02-26T03:41:33;99632.31;;;2.52;74.33
22031;BME280;11179;52.106;21.024;2024-02-26T03:43:58;99625.81;;;2.53;74.24
22031;BME280;11179;52.106;21.024;2024-02-26T03:46:24;99624.41;;;2.51;74.62
22031;BME280;11179;52.106;21.024;2024-02-26T03:48:49;99629.84;;;2.51;74.55
22031;BME280;11179;52.106;21.024;2024-02-26T03:51:14;99630.41;;;2.53;74.77
22031;BME280;11179;52.106;21.024;2024-02-26T03:53:40;99629.38;;;2.54;74.92
22031;BME280;11179;52.106;21.024;2024-02-26T03:56:06;99619.34;;;2.54;74.99
22031;BME280;11179;52.106;21.024;2024-02-26T03:58:31;99623.94;;;2.54;74.96
22031;BME280;11179;52.106;21.024;2024-02-26T04:00:57;99620.41;;;2.53;75.09
22031;BME280;11179;52.106;21.024;2024-02-26T04:03:22;99628.19;;;2.50;75.30
22031;BME280;11179;52.106;21.024;2024-02-26T04:05:47;99632.38;;;2.46;75.19
22031;BME280;11179;52.106;21.024;2024-02-26T04:08:13;99625.69;;;2.48;75.41
22031;BME280;11179;52.106;21.024;2024-02-26T04:10:38;99624.41;;;2.51;75.33
22031;BME280;11179;52.106;21.024;2024-02-26T04:13:07;99621.94;;;2.49;75.54
22031;BME280;11179;52.106;21.024;2024-02-26T04:15:33;99617.13;;;2.51;75.65
22031;BME280;11179;52.106;21.024;2024-02-26T04:17:59;99630.19;;;2.54;75.67
22031;BME280;11179;52.106;21.024;2024-02-26T04:20:24;99623.72;;;2.55;75.60
22031;BME280;11179;52.106;21.024;2024-02-26T04:22:49;99614.53;;;2.56;75.69
22031;BME280;11179;52.106;21.024;2024-02-26T04:25:15;99632.47;;;2.57;75.52
22031;BME280;11179;52.106;21.024;2024-02-26T04:27:41;99613.81;;;2.49;75.63
22031;BME280;11179;52.106;21.024;2024-02-26T04:30:07;99621.31;;;2.47;75.93
22031;BME280;11179;52.106;21.024;2024-02-26T04:32:33;99616.72;;;2.48;75.80
22031;BME280;11179;52.106;21.024;2024-02-26T04:35:00;99618.38;;;2.49;75.95
22031;BME280;11179;52.106;21.024;2024-02-26T04:37:25;99623.59;;;2.50;75.90
22031;BME280;11179;52.106;21.024;2024-02-26T04:39:57;99615.91;;;2.47;75.93
22031;BME280;11179;52.106;21.024;2024-02-26T04:42:22;99620.28;;;2.48;75.96
22031;BME280;11179;52.106;21.024;2024-02-26T04:44:48;99625.69;;;2.48;76.21
22031;BME280;11179;52.106;21.024;2024-02-26T04:47:13;99629.22;;;2.49;76.11
22031;BME280;11179;52.106;21.024;2024-02-26T04:49:39;99632.78;;;2.49;76.27
22031;BME280;11179;52.106;21.024;2024-02-26T04:52:04;99637.28;;;2.55;76.26
22031;BME280;11179;52.106;21.024;2024-02-26T04:54:30;99632.84;;;2.61;76.33
22031;BME280;11179;52.106;21.024;2024-02-26T04:56:55;99635.03;;;2.71;76.26
22031;BME280;11179;52.106;21.024;2024-02-26T04:59:20;99633.53;;;2.75;76.25
22031;BME280;11179;52.106;21.024;2024-02-26T05:01:46;99633.31;;;2.76;76.13
22031;BME280;11179;52.106;21.024;2024-02-26T05:04:12;99621.66;;;2.76;76.66
22031;BME280;11179;52.106;21.024;2024-02-26T05:06:37;99629.69;;;2.82;76.71
22031;BME280;11179;52.106;21.024;2024-02-26T05:09:03;99640.91;;;2.86;76.52
22031;BME280;11179;52.106;21.024;2024-02-26T05:11:28;99639.25;;;2.85;76.27
22031;BME280;11179;52.106;21.024;2024-02-26T05:13:54;99627.19;;;2.81;76.49
22031;BME280;11179;52.106;21.024;2024-02-26T05:16:19;99623.91;;;2.79;76.51
22031;BME280;11179;52.106;21.024;2024-02-26T05:18:46;99634.16;;;2.77;76.57
22031;BME280;11179;52.106;21.024;2024-02-26T05:21:11;99632.63;;;2.81;76.86
22031;BME280;11179;52.106;21.024;2024-02-26T05:23:37;99635.13;;;2.82;76.59
22031;BME280;11179;52.106;21.024;2024-02-26T05:26:05;99633.47;;;2.81;76.75
22031;BME280;11179;52.106;21.024;2024-02-26T05:28:31;99632.28;;;2.77;76.66
22031;BME280;11179;52.106;21.024;2024-02-26T05:30:56;99636.25;;;2.75;76.49
22031;BME280;11179;52.106;21.024;2024-02-26T05:33:21;99634.44;;;2.69;76.37
22031;BME280;11179;52.106;21.024;2024-02-26T05:35:48;99644.22;;;2.70;76.49
22031;BME280;11179;52.106;21.024;2024-02-26T05:38:13;99646.94;;;2.70;76.39
22031;BME280;11179;52.106;21.024;2024-02-26T05:40:39;99654.22;;;2.69;76.20
22031;BME280;11179;52.106;21.024;2024-02-26T05:43:04;99649.03;;;2.68;76.59
22031;BME280;11179;52.106;21.024;2024-02-26T05:45:29;99650.63;;;2.75;76.64
22031;BME280;11179;52.106;21.024;2024-02-26T05:47:55;99659.28;;;2.84;76.77
22031;BME280;11179;52.106;21.024;2024-02-26T05:50:20;99651.31;;;2.89;76.75
22031;BME280;11179;52.106;21.024;2024-02-26T05:52:45;99650.78;;;2.98;76.70
22031;BME280;11179;52.106;21.024;2024-02-26T05:55:11;99655.44;;;3.10;76.75
22031;BME280;11179;52.106;21.024;2024-02-26T05:57:36;99646.03;;;3.12;76.83
22031;BME280;11179;52.106;21.024;2024-02-26T06:00:02;99661.31;;;3.25;77.00
22031;BME280;11179;52.106;21.024;2024-02-26T06:02:31;99654.63;;;3.27;76.74
22031;BME280;11179;52.106;21.024;2024-02-26T06:04:56;99659.00;;;3.28;77.20
22031;BME280;11179;52.106;21.024;2024-02-26T06:07:22;99667.03;;;3.35;77.17
22031;BME280;11179;52.106;21.024;2024-02-26T06:09:48;99658.22;;;3.40;77.40
22031;BME280;11179;52.106;21.024;2024-02-26T06:12:14;99666.50;;;3.45;77.29
22031;BME280;11179;52.106;21.024;2024-02-26T06:14:39;99659.09;;;3.52;77.50
22031;BME280;11179;52.106;21.024;2024-02-26T06:17:05;99661.47;;;3.60;77.33
22031;BME280;11179;52.106;21.024;2024-02-26T06:19:30;99661.78;;;3.70;77.64
22031;BME280;11179;52.106;21.024;2024-02-26T06:21:55;99663.91;;;3.80;77.53
22031;BME280;11179;52.106;21.024;2024-02-26T06:24:21;99661.09;;;3.86;77.25
22031;BME280;11179;52.106;21.024;2024-02-26T06:26:47;99671.56;;;4.01;77.69
22031;BME280;11179;52.106;21.024;2024-02-26T06:29:13;99662.25;;;4.08;77.59
22031;BME280;11179;52.106;21.024;2024-02-26T06:31:38;99654.13;;;4.20;77.59
22031;BME280;11179;52.106;21.024;2024-02-26T06:34:03;99666.44;;;4.34;77.85
22031;BME280;11179;52.106;21.024;2024-02-26T06:36:29;99671.19;;;4.51;77.74
22031;BME280;11179;52.106;21.024;2024-02-26T06:38:56;99665.75;;;4.62;77.72
22031;BME280;11179;52.106;21.024;2024-02-26T06:41:22;99668.69;;;4.72;77.97
22031;BME280;11179;52.106;21.024;2024-02-26T06:43:52;99670.56;;;4.84;78.09
22031;BME280;11179;52.106;21.024;2024-02-26T06:46:18;99662.84;;;5.15;78.41
22031;BME280;11179;52.106;21.024;2024-02-26T06:48:43;99675.72;;;5.60;78.47
22031;BME280;11179;52.106;21.024;2024-02-26T06:51:08;99671.06;;;6.17;78.34
22031;BME280;11179;52.106;21.024;2024-02-26T06:53:34;99673.16;;;6.61;78.04
22031;BME280;11179;52.106;21.024;2024-02-26T06:55:59;99679.28;;;7.06;77.73
22031;BME280;11179;52.106;21.024;2024-02-26T06:58:24;99677.66;;;7.49;77.52
22031;BME280;11179;52.106;21.024;2024-02-26T07:00:50;99673.72;;;7.88;77.58
22031;BME280;11179;52.106;21.024;2024-02-26T07:03:15;99672.25;;;8.29;77.25
22031;BME280;11179;52.106;21.024;2024-02-26T07:05:40;99676.09;;;8.65;76.98
22031;BME280;11179;52.106;21.024;2024-02-26T07:08:06;99668.06;;;8.91;76.76
22031;BME280;11179;52.106;21.024;2024-02-26T07:10:32;99674.78;;;9.15;76.77
22031;BME280;11179;52.106;21.024;2024-02-26T07:12:57;99674.38;;;9.49;75.87
22031;BME280;11179;52.106;21.024;2024-02-26T07:15:22;99686.06;;;9.81;75.14
22031;BME280;11179;52.106;21.024;2024-02-26T07:17:48;99672.69;;;10.10;74.28
22031;BME280;11179;52.106;21.024;2024-02-26T07:20:14;99682.56;;;10.31;73.37
22031;BME280;11179;52.106;21.024;2024-02-26T07:22:40;99674.63;;;10.55;72.89
22031;BME280;11179;52.106;21.024;2024-02-26T07:25:07;99682.03;;;10.75;71.75
22031;BME280;11179;52.106;21.024;2024-02-26T07:27:34;99666.09;;;10.77;70.97
22031;BME280;11179;52.106;21.024;2024-02-26T07:29:59;99687.47;;;11.00;70.45
22031;BME280;11179;52.106;21.024;2024-02-26T07:32:24;99687.50;;;11.15;69.62
22031;BME280;11179;52.106;21.024;2024-02-26T07:34:50;99694.31;;;11.28;69.40
22031;BME280;11179;52.106;21.024;2024-02-26T07:37:15;99689.59;;;11.39;68.92
22031;BME280;11179;52.106;21.024;2024-02-26T07:39:41;99691.53;;;11.33;68.06
22031;BME280;11179;52.106;21.024;2024-02-26T07:42:06;99682.72;;;11.41;67.87
22031;BME280;11179;52.106;21.024;2024-02-26T07:44:33;99682.91;;;11.60;67.34
22031;BME280;11179;52.106;21.024;2024-02-26T07:46:58;99690.00;;;11.76;67.00
22031;BME280;11179;52.106;21.024;2024-02-26T07:49:24;99690.19;;;11.95;66.29
22031;BME280;11179;52.106;21.024;2024-02-26T07:51:49;99688.66;;;12.18;65.94
22031;BME280;11179;52.106;21.024;2024-02-26T07:54:14;99690.47;;;12.38;65.27
22031;BME280;11179;52.106;21.024;2024-02-26T07:56:41;99686.50;;;12.54;64.82
22031;BME280;11179;52.106;21.024;2024-02-26T07:59:06;99683.63;;;12.69;64.16
22031;BME280;11179;52.106;21.024;2024-02-26T08:01:32;99686.88;;;12.76;63.44
22031;BME280;11179;52.106;21.024;2024-02-26T08:03:58;99685.38;;;12.89;63.23
22031;BME280;11179;52.106;21.024;2024-02-26T08:06:24;99696.00;;;13.01;62.81
22031;BME280;11179;52.106;21.024;2024-02-26T08:08:50;99693.38;;;13.14;62.36
22031;BME280;11179;52.106;21.024;2024-02-26T08:11:15;99692.19;;;13.20;62.23
22031;BME280;11179;52.106;21.024;2024-02-26T08:13:41;99694.25;;;13.33;61.73
22031;BME280;11179;52.106;21.024;2024-02-26T08:16:06;99699.56;;;13.54;61.38
22031;BME280;11179;52.106;21.024;2024-02-26T08:18:32;99696.16;;;13.62;61.06
22031;BME280;11179;52.106;21.024;2024-02-26T08:20:57;99704.75;;;13.60;60.79
22031;BME280;11179;52.106;21.024;2024-02-26T08:23:22;99699.47;;;13.64;60.62
22031;BME280;11179;52.106;21.024;2024-02-26T08:25:48;99706.56;;;13.70;60.23
22031;BME280;11179;52.106;21.024;2024-02-26T08:28:13;99705.13;;;13.73;60.08
22031;BME280;11179;52.106;21.024;2024-02-26T08:30:39;99706.38;;;13.61;59.84
22031;BME280;11179;52.106;21.024;2024-02-26T08:33:04;99710.97;;;13.71;60.06
22031;BME280;11179;52.106;21.024;2024-02-26T08:35:30;99701.31;;;13.92;59.73
22031;BME280;11179;52.106;21.024;2024-02-26T08:37:55;99711.38;;;14.02;59.44
22031;BME280;11179;52.106;21.024;2024-02-26T08:40:21;99711.31;;;14.07;59.27
22031;BME280;11179;52.106;21.024;2024-02-26T08:42:46;99711.63;;;14.06;59.02
22031;BME280;11179;52.106;21.024;2024-02-26T08:45:12;99714.06;;;14.07;58.63
22031;BME280;11179;52.106;21.024;2024-02-26T08:47:40;99707.44;;;14.08;58.67
22031;BME280;11179;52.106;21.024;2024-02-26T08:50:06;99711.84;;;14.09;58.28
22031;BME280;11179;52.106;21.024;2024-02-26T08:52:31;99705.78;;;14.07;58.45
22031;BME280;11179;52.106;21.024;2024-02-26T08:54:57;99713.91;;;13.98;58.69
22031;BME280;11179;52.106;21.024;2024-02-26T08:57:22;99719.25;;;13.71;58.89
22031;BME280;11179;52.106;21.024;2024-02-26T08:59:48;99716.09;;;13.54;58.98
22031;BME280;11179;52.106;21.024;2024-02-26T09:02:13;99719.50;;;13.46;59.36
22031;BME280;11179;52.106;21.024;2024-02-26T09:04:38;99726.81;;;13.31;59.38
22031;BME280;11179;52.106;21.024;2024-02-26T09:07:04;99725.28;;;13.20;59.61
22031;BME280;11179;52.106;21.024;2024-02-26T09:09:29;99725.56;;;13.19;59.74
22031;BME280;11179;52.106;21.024;2024-02-26T09:11:55;99727.75;;;13.22;59.81
22031;BME280;11179;52.106;21.024;2024-02-26T09:14:21;99723.31;;;13.26;59.88
22031;BME280;11179;52.106;21.024;2024-02-26T09:16:46;99721.09;;;13.28;59.96
22031;BME280;11179;52.106;21.024;2024-02-26T09:19:13;99727.22;;;13.20;59.84
22031;BME280;11179;52.106;21.024;2024-02-26T09:21:45;99728.03;;;13.20;59.99
22031;BME280;11179;52.106;21.024;2024-02-26T09:24:11;99730.94;;;13.05;60.08
22031;BME280;11179;52.106;21.024;2024-02-26T09:26:37;99732.66;;;13.01;60.34
22031;BME280;11179;52.106;21.024;2024-02-26T09:29:02;99739.38;;;12.90;60.15
22031;BME280;11179;52.106;21.024;2024-02-26T09:31:29;99733.44;;;12.73;60.59
22031;BME280;11179;52.106;21.024;2024-02-26T09:33:54;99731.81;;;12.72;60.85
22031;BME280;11179;52.106;21.024;2024-02-26T09:36:20;99729.00;;;12.77;60.99
22031;BME280;11179;52.106;21.024;2024-02-26T09:38:46;99736.16;;;12.78;60.85
22031;BME280;11179;52.106;21.024;2024-02-26T09:41:14;99734.53;;;12.77;61.01
22031;BME280;11179;52.106;21.024;2024-02-26T09:43:45;99732.88;;;12.76;61.01
22031;BME280;11179;52.106;21.024;2024-02-26T09:46:14;99732.28;;;12.79;60.99
22031;BME280;11179;52.106;21.024;2024-02-26T09:48:42;99731.16;;;12.80;60.93
22031;BME280;11179;52.106;21.024;2024-02-26T09:51:09;99737.31;;;12.72;61.10
22031;BME280;11179;52.106;21.024;2024-02-26T09:53:36;99748.94;;;12.64;61.12
22031;BME280;11179;52.106;21.024;2024-02-26T09:56:06;99749.06;;;12.38;61.37
22031;BME280;11179;52.106;21.024;2024-02-26T09:58:33;99756.28;;;12.29;61.80
22031;BME280;11179;52.106;21.024;2024-02-26T10:01:00;99759.72;;;12.11;61.93
22031;BME280;11179;52.106;21.024;2024-02-26T10:03:36;99757.84;;;11.96;62.06
22031;BME280;11179;52.106;21.024;2024-02-26T10:06:03;99751.25;;;11.92;62.35
22031;BME280;11179;52.106;21.024;2024-02-26T10:08:31;99747.19;;;11.79;62.30
22031;BME280;11179;52.106;21.024;2024-02-26T10:10:57;99757.06;;;11.85;62.35
22031;BME280;11179;52.106;21.024;2024-02-26T10:13:23;99767.00;;;11.76;62.42
22031;BME280;11179;52.106;21.024;2024-02-26T10:15:48;99760.72;;;11.66;62.67
22031;BME280;11179;52.106;21.024;2024-02-26T10:18:14;99753.31;;;11.61;62.87
22031;BME280;11179;52.106;21.024;2024-02-26T10:20:40;99759.91;;;11.65;62.91
22031;BME280;11179;52.106;21.024;2024-02-26T10:23:05;99758.47;;;11.73;63.19
22031;BME280;11179;52.106;21.024;2024-02-26T10:25:31;99756.38;;;11.54;63.27
22031;BME280;11179;52.106;21.024;2024-02-26T10:28:00;99753.34;;;11.56;63.42
22031;BME280;11179;52.106;21.024;2024-02-26T10:30:29;99763.75;;;11.64;63.40
22031;BME280;11179;52.106;21.024;2024-02-26T10:32:56;99772.31;;;11.58;63.32
22031;BME280;11179;52.106;21.024;2024-02-26T10:35:21;99760.53;;;11.42;63.50
22031;BME280;11179;52.106;21.024;2024-02-26T10:37:48;99768.50;;;11.38;63.51
22031;BME280;11179;52.106;21.024;2024-02-26T10:40:14;99769.88;;;11.36;63.66
22031;BME280;11179;52.106;21.024;2024-02-26T10:42:40;99755.56;;;11.44;63.71
22031;BME280;11179;52.106;21.024;2024-02-26T10:45:07;99764.88;;;11.53;63.44
22031;BME280;11179;52.106;21.024;2024-02-26T10:47:34;99761.28;;;11.68;63.53
22031;BME280;11179;52.106;21.024;2024-02-26T10:50:05;99765.31;;;11.85;63.27
22031;BME280;11179;52.106;21.024;2024-02-26T10:52:35;99756.44;;;11.99;63.05
22031;BME280;11179;52.106;21.024;2024-02-26T10:55:02;99748.25;;;11.94;62.82
22031;BME280;11179;52.106;21.024;2024-02-26T11:00:01;99752.50;;;12.20;62.63
22031;BME280;11179;52.106;21.024;2024-02-26T11:02:31;99754.34;;;12.35;62.25
22031;BME280;11179;52.106;21.024;2024-02-26T11:04:58;99749.06;;;12.43;61.95
22031;BME280;11179;52.106;21.024;2024-02-26T11:07:25;99748.97;;;12.58;61.77
22031;BME280;11179;52.106;21.024;2024-02-26T11:09:50;99743.28;;;12.79;61.60
22031;BME280;11179;52.106;21.024;2024-02-26T11:12:17;99737.63;;;12.99;61.40
22031;BME280;11179;52.106;21.024;2024-02-26T11:14:46;99732.28;;;13.08;60.94
22031;BME280;11179;52.106;21.024;2024-02-26T11:17:13;99725.88;;;13.17;60.57
22031;BME280;11179;52.106;21.024;2024-02-26T11:19:39;99727.22;;;13.20;60.19
22031;BME280;11179;52.106;21.024;2024-02-26T11:22:06;99730.88;;;13.15;59.99
22031;BME280;11179;52.106;21.024;2024-02-26T11:24:32;99733.19;;;13.03;60.04
22031;BME280;11179;52.106;21.024;2024-02-26T11:27:01;99731.94;;;12.90;59.97
22031;BME280;11179;52.106;21.024;2024-02-26T11:29:34;99735.03;;;12.79;60.15
22031;BME280;11179;52.106;21.024;2024-02-26T11:32:03;99737.78;;;12.79;60.19
22031;BME280;11179;52.106;21.024;2024-02-26T11:34:29;99726.72;;;12.89;59.85
22031;BME280;11179;52.106;21.024;2024-02-26T11:36:55;99725.97;;;13.07;59.63
22031;BME280;11179;52.106;21.024;2024-02-26T11:39:21;99719.22;;;13.18;59.02
22031;BME280;11179;52.106;21.024;2024-02-26T11:41:47;99722.38;;;13.36;58.97
22031;BME280;11179;52.106;21.024;2024-02-26T11:44:12;99716.66;;;13.56;58.39
22031;BME280;11179;52.106;21.024;2024-02-26T11:46:40;99732.59;;;13.59;57.90
22031;BME280;11179;52.106;21.024;2024-02-26T11:51:54;99722.75;;;13.53;58.03
22031;BME280;11179;52.106;21.024;2024-02-26T11:57:23;99726.44;;;13.43;57.71
22031;BME280;11179;52.106;21.024;2024-02-26T11:59:49;99723.47;;;13.34;57.37
22031;BME280;11179;52.106;21.024;2024-02-26T12:05:10;99711.28;;;13.41;57.43
22031;BME280;11179;52.106;21.024;2024-02-26T12:07:39;99716.59;;;13.32;57.38
22031;BME280;11179;52.106;21.024;2024-02-26T12:12:41;99706.81;;;13.21;57.33
22031;BME280;11179;52.106;21.024;2024-02-26T12:15:08;99707.31;;;13.28;57.30
22031;BME280;11179;52.106;21.024;2024-02-26T12:17:34;99708.00;;;13.39;57.15
22031;BME280;11179;52.106;21.024;2024-02-26T12:20:10;99713.69;;;13.47;56.88
22031;BME280;11179;52.106;21.024;2024-02-26T12:22:39;99715.63;;;13.47;56.82
22031;BME280;11179;52.106;21.024;2024-02-26T12:25:06;99712.94;;;13.42;56.61
22031;BME280;11179;52.106;21.024;2024-02-26T12:27:31;99721.22;;;13.42;56.74
22031;BME280;11179;52.106;21.024;2024-02-26T12:29:56;99722.63;;;13.39;56.88
22031;BME280;11179;52.106;21.024;2024-02-26T12:32:23;99726.47;;;13.38;56.78
22031;BME280;11179;52.106;21.024;2024-02-26T12:34:48;99718.50;;;13.37;56.77
22031;BME280;11179;52.106;21.024;2024-02-26T12:37:15;99718.47;;;13.42;56.86
22031;BME280;11179;52.106;21.024;2024-02-26T12:39:41;99721.25;;;13.37;56.64
22031;BME280;11179;52.106;21.024;2024-02-26T12:42:07;99721.44;;;13.45;56.55
22031;BME280;11179;52.106;21.024;2024-02-26T12:44:32;99719.56;;;13.41;56.50
22031;BME280;11179;52.106;21.024;2024-02-26T12:47:01;99721.75;;;13.44;56.42
22031;BME280;11179;52.106;21.024;2024-02-26T12:49:29;99719.56;;;13.41;56.36
22031;BME280;11179;52.106;21.024;2024-02-26T12:51:55;99717.06;;;13.44;56.44
22031;BME280;11179;52.106;21.024;2024-02-26T12:54:28;99712.81;;;13.52;56.30
22031;BME280;11179;52.106;21.024;2024-02-26T12:56:54;99719.44;;;13.56;56.04
22031;BME280;11179;52.106;21.024;2024-02-26T12:59:20;99723.22;;;13.60;56.00
22031;BME280;11179;52.106;21.024;2024-02-26T13:01:46;99724.00;;;13.65;55.78